BA25 EGKK-EDDM
Flight info
| Callsign | BA25 |
|---|---|
| Flight time | 1h 23m |
| Altitude | 23000 |
| Route | DVR L9 KONAN/N0452F390 UL607 SPI DCT MOVUM T109 HAREM/N0388F230 T104 ROKIL ROKIL1B |
| Aircraft | A20N/M-SDE2E3FGHIRWXY/LB1 |
Departure
| Time | 2026-05-06 18:03 |
|---|---|
| Airport | London Gatwick Airport (EGKK) |
Arrival
| Time | 2026-05-06 19:26 |
|---|---|
| Airport | Munich Airport (EDDM) |
| Time | Latitude | Longitude | Altitude | Speed | Heading |
|---|---|---|---|---|---|
| 2026-05-06 17:20 | 51.15592 | -0.17626 | 208 ft | 0 kts | 347° |
| 2026-05-06 17:36 | 51.15590 | -0.17626 | 216 ft | 2 kts | 347° |
| 2026-05-06 17:36 | 51.15574 | -0.17620 | 210 ft | 2 kts | 344° |
| 2026-05-06 17:36 | 51.15559 | -0.17612 | 212 ft | 2 kts | 340° |
| 2026-05-06 17:36 | 51.15544 | -0.17601 | 215 ft | 2 kts | 327° |
| 2026-05-06 17:37 | 51.15533 | -0.17582 | 218 ft | 2 kts | 286° |
| 2026-05-06 17:37 | 51.15532 | -0.17560 | 213 ft | 1 kts | 257° |
| 2026-05-06 17:37 | 51.15533 | -0.17557 | 208 ft | 0 kts | 257° |
| 2026-05-06 17:41 | 51.15532 | -0.17562 | 216 ft | 4 kts | 256° |
| 2026-05-06 17:41 | 51.15529 | -0.17583 | 217 ft | 8 kts | 257° |
| 2026-05-06 17:41 | 51.15525 | -0.17613 | 213 ft | 12 kts | 256° |
| 2026-05-06 17:42 | 51.15500 | -0.17789 | 212 ft | 22 kts | 258° |
| 2026-05-06 17:42 | 51.15471 | -0.18006 | 218 ft | 19 kts | 258° |
| 2026-05-06 17:42 | 51.15433 | -0.18153 | 209 ft | 12 kts | 205° |
| 2026-05-06 17:42 | 51.15358 | -0.18138 | 214 ft | 11 kts | 167° |
| 2026-05-06 17:43 | 51.15290 | -0.18114 | 217 ft | 10 kts | 167° |
| 2026-05-06 17:43 | 51.15224 | -0.18107 | 208 ft | 9 kts | 203° |
| 2026-05-06 17:43 | 51.15200 | -0.18183 | 217 ft | 8 kts | 258° |
| 2026-05-06 17:43 | 51.15187 | -0.18293 | 217 ft | 15 kts | 263° |
| 2026-05-06 17:44 | 51.15164 | -0.18494 | 211 ft | 23 kts | 258° |
| 2026-05-06 17:44 | 51.15128 | -0.18762 | 218 ft | 27 kts | 257° |
| 2026-05-06 17:44 | 51.15084 | -0.19074 | 217 ft | 31 kts | 258° |
| 2026-05-06 17:44 | 51.15038 | -0.19406 | 212 ft | 34 kts | 257° |
| 2026-05-06 17:45 | 51.14985 | -0.19788 | 216 ft | 37 kts | 258° |
| 2026-05-06 17:45 | 51.14930 | -0.20190 | 212 ft | 37 kts | 257° |
| 2026-05-06 17:45 | 51.14879 | -0.20556 | 211 ft | 31 kts | 258° |
| 2026-05-06 17:45 | 51.14835 | -0.20886 | 212 ft | 31 kts | 258° |
| 2026-05-06 17:46 | 51.14799 | -0.21130 | 213 ft | 16 kts | 251° |
| 2026-05-06 17:46 | 51.14768 | -0.21296 | 211 ft | 16 kts | 256° |
| 2026-05-06 17:46 | 51.14748 | -0.21387 | 214 ft | 6 kts | 231° |
| 2026-05-06 17:46 | 51.14729 | -0.21405 | 215 ft | 0 kts | 194° |
| 2026-05-06 17:49 | 51.14728 | -0.21405 | 215 ft | 1 kts | 193° |
| 2026-05-06 17:49 | 51.14714 | -0.21403 | 216 ft | 0 kts | 168° |
| 2026-05-06 17:55 | 51.14691 | -0.21394 | 212 ft | 10 kts | 162° |
| 2026-05-06 17:55 | 51.14640 | -0.21340 | 215 ft | 5 kts | 154° |
| 2026-05-06 17:56 | 51.14624 | -0.21333 | 215 ft | 0 kts | 169° |
| 2026-05-06 18:00 | 51.14608 | -0.21328 | 198 ft | 8 kts | 169° |
| 2026-05-06 18:00 | 51.14532 | -0.21260 | 209 ft | 14 kts | 125° |
| 2026-05-06 18:01 | 51.14523 | -0.21146 | 209 ft | 7 kts | 77° |
| 2026-05-06 18:01 | 51.14530 | -0.21092 | 213 ft | 0 kts | 77° |
| 2026-05-06 18:02 | 51.14541 | -0.21010 | 218 ft | 32 kts | 78° |
| 2026-05-06 18:02 | 51.14650 | -0.20244 | 217 ft | 111 kts | 77° |
| 2026-05-06 18:02 | 51.14872 | -0.18658 | 311 ft | 173 kts | 77° |
| 2026-05-06 18:03 | 51.15128 | -0.16812 | 1154 ft | 173 kts | 75° |
| 2026-05-06 18:03 | 51.15362 | -0.15097 | 2209 ft | 169 kts | 74° |
| 2026-05-06 18:03 | 51.15621 | -0.13225 | 2672 ft | 195 kts | 74° |
| 2026-05-06 18:03 | 51.15939 | -0.10962 | 2914 ft | 229 kts | 75° |
| 2026-05-06 18:04 | 51.16295 | -0.08406 | 3384 ft | 251 kts | 76° |
| 2026-05-06 18:04 | 51.16685 | -0.05574 | 4238 ft | 259 kts | 77° |
| 2026-05-06 18:04 | 51.16896 | -0.02739 | 5056 ft | 265 kts | 88° |
| 2026-05-06 18:04 | 51.16871 | 0.00228 | 5698 ft | 270 kts | 92° |
| 2026-05-06 18:05 | 51.16788 | 0.03192 | 6047 ft | 271 kts | 92° |
| 2026-05-06 18:05 | 51.16708 | 0.05998 | 6586 ft | 274 kts | 92° |
| 2026-05-06 18:05 | 51.16628 | 0.09033 | 7459 ft | 277 kts | 91° |
| 2026-05-06 18:05 | 51.16553 | 0.12141 | 8334 ft | 282 kts | 91° |
| 2026-05-06 18:06 | 51.16496 | 0.15113 | 9057 ft | 289 kts | 90° |
| 2026-05-06 18:06 | 51.16471 | 0.18358 | 8991 ft | 289 kts | 89° |
| 2026-05-06 18:06 | 51.16467 | 0.21525 | 8732 ft | 288 kts | 89° |
| 2026-05-06 18:06 | 51.16470 | 0.24713 | 8633 ft | 287 kts | 88° |
| 2026-05-06 18:07 | 51.16474 | 0.27909 | 9123 ft | 291 kts | 88° |
| 2026-05-06 18:07 | 51.16478 | 0.31135 | 10021 ft | 293 kts | 88° |
| 2026-05-06 18:07 | 51.16481 | 0.34413 | 10888 ft | 296 kts | 89° |
| 2026-05-06 18:07 | 51.16483 | 0.37723 | 11736 ft | 301 kts | 89° |
| 2026-05-06 18:08 | 51.16484 | 0.40968 | 12553 ft | 305 kts | 89° |
| 2026-05-06 18:08 | 51.16485 | 0.44230 | 13376 ft | 309 kts | 89° |
| 2026-05-06 18:08 | 51.16484 | 0.47633 | 14162 ft | 313 kts | 89° |
| 2026-05-06 18:08 | 51.16471 | 0.51158 | 14773 ft | 324 kts | 90° |
| 2026-05-06 18:09 | 51.16451 | 0.54868 | 15074 ft | 344 kts | 90° |
| 2026-05-06 18:09 | 51.16428 | 0.58787 | 15358 ft | 364 kts | 90° |
| 2026-05-06 18:09 | 51.16402 | 0.62900 | 15762 ft | 378 kts | 90° |
| 2026-05-06 18:09 | 51.16376 | 0.67121 | 16399 ft | 384 kts | 90° |
| 2026-05-06 18:10 | 51.16353 | 0.71398 | 17107 ft | 388 kts | 90° |
| 2026-05-06 18:10 | 51.16334 | 0.75727 | 17790 ft | 393 kts | 90° |
| 2026-05-06 18:10 | 51.16317 | 0.80090 | 18455 ft | 397 kts | 90° |
| 2026-05-06 18:10 | 51.16303 | 0.84520 | 19039 ft | 401 kts | 90° |
| 2026-05-06 18:11 | 51.16289 | 0.88990 | 19639 ft | 405 kts | 90° |
| 2026-05-06 18:11 | 51.16275 | 0.93498 | 20252 ft | 408 kts | 90° |
| 2026-05-06 18:11 | 51.16260 | 0.97773 | 20809 ft | 412 kts | 90° |
| 2026-05-06 18:11 | 51.16245 | 1.01782 | 21330 ft | 414 kts | 90° |
| 2026-05-06 18:12 | 51.16227 | 1.06175 | 21887 ft | 418 kts | 90° |
| 2026-05-06 18:12 | 51.16207 | 1.10701 | 22419 ft | 421 kts | 90° |
| 2026-05-06 18:12 | 51.16183 | 1.15376 | 22976 ft | 424 kts | 90° |
| 2026-05-06 18:12 | 51.16158 | 1.20100 | 23510 ft | 428 kts | 90° |
| 2026-05-06 18:13 | 51.16130 | 1.24849 | 23948 ft | 431 kts | 90° |
| 2026-05-06 18:13 | 51.16100 | 1.29628 | 24381 ft | 433 kts | 90° |
| 2026-05-06 18:13 | 51.16067 | 1.34447 | 24809 ft | 436 kts | 91° |
| 2026-05-06 18:13 | 51.15978 | 1.39227 | 25221 ft | 438 kts | 92° |
| 2026-05-06 18:14 | 51.15817 | 1.44084 | 25642 ft | 441 kts | 94° |
| 2026-05-06 18:14 | 51.15607 | 1.48970 | 26043 ft | 443 kts | 95° |
| 2026-05-06 18:14 | 51.15220 | 1.53836 | 26437 ft | 445 kts | 99° |
| 2026-05-06 18:14 | 51.14723 | 1.58423 | 26803 ft | 448 kts | 101° |
| 2026-05-06 18:15 | 51.14125 | 1.63309 | 27173 ft | 450 kts | 102° |
| 2026-05-06 18:15 | 51.13478 | 1.68210 | 27553 ft | 452 kts | 103° |
| 2026-05-06 18:15 | 51.12802 | 1.73109 | 27920 ft | 455 kts | 103° |
| 2026-05-06 18:15 | 51.12107 | 1.78033 | 28278 ft | 457 kts | 103° |
| 2026-05-06 18:16 | 51.11414 | 1.82895 | 28631 ft | 459 kts | 103° |
| 2026-05-06 18:16 | 51.10716 | 1.87783 | 28969 ft | 461 kts | 103° |
| 2026-05-06 18:16 | 51.10004 | 1.92760 | 29313 ft | 463 kts | 103° |
| 2026-05-06 18:16 | 51.09334 | 1.97448 | 29705 ft | 463 kts | 103° |
| 2026-05-06 18:17 | 51.08622 | 2.02428 | 30176 ft | 461 kts | 103° |
| 2026-05-06 18:17 | 51.07911 | 2.07394 | 30581 ft | 460 kts | 103° |
| 2026-05-06 18:17 | 51.07198 | 2.12352 | 30950 ft | 459 kts | 103° |
| 2026-05-06 18:17 | 51.06484 | 2.17297 | 31312 ft | 458 kts | 103° |
| 2026-05-06 18:18 | 51.05774 | 2.22192 | 31652 ft | 458 kts | 103° |
| 2026-05-06 18:18 | 51.05051 | 2.27158 | 32019 ft | 457 kts | 103° |
| 2026-05-06 18:18 | 51.04332 | 2.32071 | 32356 ft | 457 kts | 103° |
| 2026-05-06 18:18 | 51.03611 | 2.36989 | 32698 ft | 456 kts | 103° |
| 2026-05-06 18:19 | 51.02890 | 2.41883 | 33027 ft | 455 kts | 103° |
| 2026-05-06 18:19 | 51.02178 | 2.46713 | 33354 ft | 455 kts | 103° |
| 2026-05-06 18:19 | 51.01470 | 2.51499 | 33660 ft | 454 kts | 103° |
| 2026-05-06 18:19 | 51.00747 | 2.56372 | 33987 ft | 453 kts | 103° |
| 2026-05-06 18:20 | 51.00023 | 2.61239 | 34202 ft | 454 kts | 103° |
| 2026-05-06 18:20 | 50.99296 | 2.66115 | 34410 ft | 454 kts | 103° |
| 2026-05-06 18:20 | 50.98568 | 2.70991 | 34639 ft | 454 kts | 103° |
| 2026-05-06 18:20 | 50.97838 | 2.75874 | 34864 ft | 454 kts | 103° |
| 2026-05-06 18:21 | 50.97108 | 2.80742 | 35065 ft | 455 kts | 104° |
| 2026-05-06 18:21 | 50.96374 | 2.85628 | 35279 ft | 455 kts | 104° |
| 2026-05-06 18:21 | 50.95640 | 2.90501 | 35489 ft | 455 kts | 104° |
| 2026-05-06 18:21 | 50.94904 | 2.95367 | 35691 ft | 455 kts | 104° |
| 2026-05-06 18:22 | 50.94193 | 3.00053 | 35870 ft | 455 kts | 104° |
| 2026-05-06 18:22 | 50.93450 | 3.04940 | 36056 ft | 456 kts | 104° |
| 2026-05-06 18:22 | 50.92704 | 3.09822 | 36241 ft | 456 kts | 104° |
| 2026-05-06 18:22 | 50.91955 | 3.14710 | 36417 ft | 456 kts | 104° |
| 2026-05-06 18:23 | 50.91205 | 3.19590 | 36596 ft | 456 kts | 104° |
| 2026-05-06 18:23 | 50.90453 | 3.24470 | 36785 ft | 456 kts | 104° |
| 2026-05-06 18:23 | 50.89706 | 3.29295 | 36963 ft | 456 kts | 104° |
| 2026-05-06 18:23 | 50.88939 | 3.34241 | 37136 ft | 456 kts | 104° |
| 2026-05-06 18:24 | 50.88241 | 3.38724 | 37300 ft | 456 kts | 104° |
| 2026-05-06 18:24 | 50.87480 | 3.43600 | 37466 ft | 456 kts | 105° |
| 2026-05-06 18:24 | 50.86728 | 3.48408 | 37628 ft | 456 kts | 105° |
| 2026-05-06 18:24 | 50.85962 | 3.53287 | 37795 ft | 457 kts | 105° |
| 2026-05-06 18:25 | 50.85199 | 3.58126 | 37946 ft | 457 kts | 105° |
| 2026-05-06 18:25 | 50.84425 | 3.63027 | 38100 ft | 457 kts | 105° |
| 2026-05-06 18:25 | 50.83652 | 3.67911 | 38240 ft | 457 kts | 105° |
| 2026-05-06 18:25 | 50.82875 | 3.72797 | 38378 ft | 457 kts | 105° |
| 2026-05-06 18:26 | 50.82101 | 3.77657 | 38530 ft | 457 kts | 105° |
| 2026-05-06 18:26 | 50.81320 | 3.82548 | 38634 ft | 458 kts | 105° |
| 2026-05-06 18:26 | 50.80541 | 3.87409 | 38736 ft | 458 kts | 105° |
| 2026-05-06 18:26 | 50.79770 | 3.92205 | 38840 ft | 458 kts | 105° |
| 2026-05-06 18:27 | 50.78209 | 4.01883 | 38908 ft | 449 kts | 105° |
| 2026-05-06 18:27 | 50.76718 | 4.11056 | 38906 ft | 445 kts | 105° |
| 2026-05-06 18:28 | 50.75294 | 4.19761 | 38906 ft | 445 kts | 106° |
| 2026-05-06 18:28 | 50.73776 | 4.29007 | 38910 ft | 445 kts | 106° |
| 2026-05-06 18:29 | 50.72212 | 4.38483 | 38903 ft | 448 kts | 106° |
| 2026-05-06 18:29 | 50.70625 | 4.48059 | 38908 ft | 454 kts | 106° |
| 2026-05-06 18:30 | 50.69012 | 4.57747 | 38909 ft | 460 kts | 106° |
| 2026-05-06 18:30 | 50.67372 | 4.67552 | 38906 ft | 466 kts | 106° |
| 2026-05-06 18:31 | 50.65703 | 4.77481 | 38906 ft | 472 kts | 106° |
| 2026-05-06 18:31 | 50.64019 | 4.87434 | 38900 ft | 476 kts | 106° |
| 2026-05-06 18:32 | 50.62304 | 4.97517 | 38902 ft | 476 kts | 107° |
| 2026-05-06 18:32 | 50.60589 | 5.07523 | 38905 ft | 475 kts | 107° |
| 2026-05-06 18:33 | 50.58853 | 5.17586 | 38906 ft | 475 kts | 107° |
| 2026-05-06 18:33 | 50.57112 | 5.27618 | 38908 ft | 475 kts | 107° |
| 2026-05-06 18:34 | 50.55372 | 5.37584 | 38909 ft | 475 kts | 107° |
| 2026-05-06 18:34 | 50.53615 | 5.47597 | 38910 ft | 475 kts | 107° |
| 2026-05-06 18:35 | 50.51849 | 5.57600 | 38906 ft | 475 kts | 107° |
| 2026-05-06 18:35 | 50.50075 | 5.67596 | 38902 ft | 475 kts | 107° |
| 2026-05-06 18:36 | 50.48292 | 5.77587 | 38897 ft | 475 kts | 107° |
| 2026-05-06 18:36 | 50.46502 | 5.87557 | 38892 ft | 475 kts | 107° |
| 2026-05-06 18:37 | 50.45005 | 5.95853 | 38887 ft | 475 kts | 107° |
| 2026-05-06 18:37 | 50.42902 | 6.07445 | 38885 ft | 476 kts | 108° |
| 2026-05-06 18:38 | 50.41083 | 6.17416 | 38873 ft | 476 kts | 108° |
| 2026-05-06 18:38 | 50.39251 | 6.27405 | 38870 ft | 476 kts | 108° |
| 2026-05-06 18:39 | 50.37425 | 6.37307 | 38863 ft | 476 kts | 108° |
| 2026-05-06 18:40 | 50.34672 | 6.52137 | 38857 ft | 476 kts | 108° |
| 2026-05-06 18:40 | 50.32811 | 6.62095 | 38866 ft | 476 kts | 108° |
| 2026-05-06 18:41 | 50.30942 | 6.72040 | 38851 ft | 476 kts | 108° |
| 2026-05-06 18:41 | 50.29071 | 6.81950 | 38859 ft | 476 kts | 109° |
| 2026-05-06 18:42 | 50.27203 | 6.91787 | 38857 ft | 476 kts | 109° |
| 2026-05-06 18:42 | 50.25311 | 7.01697 | 38856 ft | 476 kts | 109° |
| 2026-05-06 18:43 | 50.23413 | 7.11588 | 38855 ft | 476 kts | 109° |
| 2026-05-06 18:43 | 50.21547 | 7.21258 | 38852 ft | 476 kts | 109° |
| 2026-05-06 18:44 | 50.19629 | 7.31151 | 38855 ft | 476 kts | 109° |
| 2026-05-06 18:44 | 50.17702 | 7.41036 | 38848 ft | 476 kts | 109° |
| 2026-05-06 18:45 | 50.15766 | 7.50916 | 38832 ft | 476 kts | 109° |
| 2026-05-06 18:45 | 50.13898 | 7.60404 | 38833 ft | 477 kts | 109° |
| 2026-05-06 18:46 | 50.11960 | 7.70189 | 38833 ft | 477 kts | 109° |
| 2026-05-06 18:46 | 50.09993 | 7.80071 | 38831 ft | 477 kts | 110° |
| 2026-05-06 18:47 | 50.08020 | 7.89928 | 38830 ft | 477 kts | 110° |
| 2026-05-06 18:47 | 50.06062 | 7.99662 | 38826 ft | 477 kts | 110° |
| 2026-05-06 18:48 | 50.05188 | 8.03992 | 38824 ft | 477 kts | 110° |
| 2026-05-06 18:48 | 50.03400 | 8.12822 | 38818 ft | 477 kts | 110° |
| 2026-05-06 18:49 | 50.01399 | 8.22657 | 38822 ft | 477 kts | 110° |
| 2026-05-06 18:49 | 49.99389 | 8.32488 | 38820 ft | 477 kts | 110° |
| 2026-05-06 18:50 | 49.97372 | 8.42306 | 38819 ft | 476 kts | 110° |
| 2026-05-06 18:50 | 49.95248 | 8.51975 | 38310 ft | 471 kts | 117° |
| 2026-05-06 18:50 | 49.93761 | 8.56504 | 37481 ft | 471 kts | 122° |
| 2026-05-06 18:51 | 49.92123 | 8.60846 | 36694 ft | 473 kts | 124° |
| 2026-05-06 18:51 | 49.90390 | 8.65224 | 36164 ft | 468 kts | 125° |
| 2026-05-06 18:51 | 49.88692 | 8.69453 | 35544 ft | 467 kts | 126° |
| 2026-05-06 18:51 | 49.86978 | 8.73715 | 34932 ft | 465 kts | 125° |
| 2026-05-06 18:52 | 49.85291 | 8.77977 | 34516 ft | 460 kts | 125° |
| 2026-05-06 18:52 | 49.83692 | 8.82198 | 34702 ft | 451 kts | 124° |
| 2026-05-06 18:52 | 49.82153 | 8.86369 | 34811 ft | 442 kts | 123° |
| 2026-05-06 18:53 | 49.79148 | 8.94598 | 34815 ft | 438 kts | 124° |
| 2026-05-06 18:53 | 49.76136 | 9.02777 | 34824 ft | 437 kts | 124° |
| 2026-05-06 18:54 | 49.73121 | 9.10872 | 34818 ft | 437 kts | 124° |
| 2026-05-06 18:54 | 49.70074 | 9.18988 | 34810 ft | 437 kts | 124° |
| 2026-05-06 18:55 | 49.67016 | 9.27103 | 34809 ft | 437 kts | 124° |
| 2026-05-06 18:55 | 49.63953 | 9.35204 | 34810 ft | 438 kts | 125° |
| 2026-05-06 18:56 | 49.60674 | 9.42991 | 34813 ft | 434 kts | 132° |
| 2026-05-06 18:56 | 49.58931 | 9.46434 | 34700 ft | 433 kts | 133° |
| 2026-05-06 18:56 | 49.57028 | 9.50008 | 34461 ft | 433 kts | 135° |
| 2026-05-06 18:56 | 49.55074 | 9.53546 | 34225 ft | 433 kts | 135° |
| 2026-05-06 18:57 | 49.53100 | 9.57042 | 33987 ft | 432 kts | 136° |
| 2026-05-06 18:57 | 49.51119 | 9.60509 | 33738 ft | 431 kts | 136° |
| 2026-05-06 18:57 | 49.49128 | 9.63975 | 33456 ft | 431 kts | 136° |
| 2026-05-06 18:57 | 49.47143 | 9.67417 | 33176 ft | 431 kts | 136° |
| 2026-05-06 18:58 | 49.45159 | 9.70855 | 32893 ft | 431 kts | 136° |
| 2026-05-06 18:58 | 49.43198 | 9.74252 | 32632 ft | 431 kts | 136° |
| 2026-05-06 18:58 | 49.41198 | 9.77716 | 32356 ft | 432 kts | 135° |
| 2026-05-06 18:58 | 49.39213 | 9.81156 | 32090 ft | 432 kts | 135° |
| 2026-05-06 18:59 | 49.37216 | 9.84612 | 31825 ft | 432 kts | 135° |
| 2026-05-06 18:59 | 49.35222 | 9.88055 | 31561 ft | 432 kts | 135° |
| 2026-05-06 18:59 | 49.33226 | 9.91500 | 31301 ft | 432 kts | 135° |
| 2026-05-06 18:59 | 49.31227 | 9.94945 | 31046 ft | 433 kts | 135° |
| 2026-05-06 19:00 | 49.29226 | 9.98391 | 30792 ft | 433 kts | 135° |
| 2026-05-06 19:00 | 49.27229 | 10.01824 | 30548 ft | 433 kts | 135° |
| 2026-05-06 19:00 | 49.25250 | 10.05222 | 30309 ft | 433 kts | 135° |
| 2026-05-06 19:00 | 49.23897 | 10.07543 | 30136 ft | 433 kts | 135° |
| 2026-05-06 19:01 | 49.21235 | 10.12101 | 29809 ft | 433 kts | 135° |
| 2026-05-06 19:01 | 49.19250 | 10.15498 | 29519 ft | 434 kts | 135° |
| 2026-05-06 19:01 | 49.17240 | 10.18936 | 29241 ft | 434 kts | 135° |
| 2026-05-06 19:01 | 49.15243 | 10.22348 | 28963 ft | 435 kts | 135° |
| 2026-05-06 19:02 | 49.13208 | 10.25778 | 28695 ft | 435 kts | 136° |
| 2026-05-06 19:02 | 49.11152 | 10.29168 | 28415 ft | 434 kts | 136° |
| 2026-05-06 19:02 | 49.09095 | 10.32514 | 28149 ft | 432 kts | 137° |
| 2026-05-06 19:02 | 49.07037 | 10.35834 | 27875 ft | 430 kts | 137° |
| 2026-05-06 19:03 | 49.04979 | 10.39136 | 27609 ft | 428 kts | 137° |
| 2026-05-06 19:03 | 49.02971 | 10.42350 | 27138 ft | 426 kts | 137° |
| 2026-05-06 19:03 | 49.00923 | 10.45624 | 26512 ft | 424 kts | 137° |
| 2026-05-06 19:03 | 48.98894 | 10.48860 | 25902 ft | 420 kts | 137° |
| 2026-05-06 19:04 | 48.96885 | 10.52061 | 25299 ft | 416 kts | 137° |
| 2026-05-06 19:04 | 48.94895 | 10.55226 | 24711 ft | 412 kts | 137° |
| 2026-05-06 19:04 | 48.92927 | 10.58353 | 24141 ft | 407 kts | 137° |
| 2026-05-06 19:04 | 48.90979 | 10.61444 | 23574 ft | 403 kts | 137° |
| 2026-05-06 19:05 | 48.89049 | 10.64503 | 22929 ft | 399 kts | 136° |
| 2026-05-06 19:05 | 48.87128 | 10.67544 | 22276 ft | 396 kts | 136° |
| 2026-05-06 19:05 | 48.85256 | 10.70504 | 21648 ft | 394 kts | 136° |
| 2026-05-06 19:05 | 48.83364 | 10.73494 | 21017 ft | 392 kts | 137° |
| 2026-05-06 19:06 | 48.81482 | 10.76466 | 20405 ft | 390 kts | 136° |
| 2026-05-06 19:06 | 48.79608 | 10.79419 | 19803 ft | 388 kts | 137° |
| 2026-05-06 19:06 | 48.77734 | 10.82373 | 19208 ft | 387 kts | 136° |
| 2026-05-06 19:06 | 48.75896 | 10.85289 | 18636 ft | 385 kts | 136° |
| 2026-05-06 19:07 | 48.74048 | 10.88221 | 18059 ft | 384 kts | 136° |
| 2026-05-06 19:07 | 48.72831 | 10.90150 | 17627 ft | 383 kts | 136° |
| 2026-05-06 19:07 | 48.70384 | 10.94032 | 16768 ft | 379 kts | 136° |
| 2026-05-06 19:07 | 48.68633 | 10.96823 | 16166 ft | 377 kts | 136° |
| 2026-05-06 19:08 | 48.66835 | 10.99699 | 15555 ft | 375 kts | 136° |
| 2026-05-06 19:08 | 48.65054 | 11.02564 | 14958 ft | 373 kts | 136° |
| 2026-05-06 19:08 | 48.63290 | 11.05418 | 14370 ft | 371 kts | 136° |
| 2026-05-06 19:08 | 48.61540 | 11.08269 | 13795 ft | 369 kts | 136° |
| 2026-05-06 19:09 | 48.59805 | 11.11119 | 13173 ft | 366 kts | 136° |
| 2026-05-06 19:09 | 48.58096 | 11.13937 | 12534 ft | 362 kts | 136° |
| 2026-05-06 19:09 | 48.56405 | 11.16735 | 11970 ft | 358 kts | 136° |
| 2026-05-06 19:09 | 48.54757 | 11.19470 | 11715 ft | 345 kts | 136° |
| 2026-05-06 19:10 | 48.53170 | 11.22125 | 11357 ft | 337 kts | 136° |
| 2026-05-06 19:10 | 48.51619 | 11.24728 | 10975 ft | 332 kts | 136° |
| 2026-05-06 19:10 | 48.50093 | 11.27289 | 10854 ft | 332 kts | 136° |
| 2026-05-06 19:10 | 48.48532 | 11.29910 | 10846 ft | 333 kts | 136° |
| 2026-05-06 19:11 | 48.47002 | 11.32481 | 10849 ft | 333 kts | 136° |
| 2026-05-06 19:11 | 48.45460 | 11.35077 | 10817 ft | 332 kts | 136° |
| 2026-05-06 19:11 | 48.43928 | 11.37657 | 10465 ft | 327 kts | 136° |
| 2026-05-06 19:11 | 48.42463 | 11.40142 | 10273 ft | 315 kts | 136° |
| 2026-05-06 19:12 | 48.41041 | 11.42572 | 10107 ft | 303 kts | 136° |
| 2026-05-06 19:12 | 48.39672 | 11.44940 | 9813 ft | 298 kts | 135° |
| 2026-05-06 19:12 | 48.38659 | 11.47667 | 9355 ft | 306 kts | 110° |
| 2026-05-06 19:12 | 48.38433 | 11.49772 | 9027 ft | 311 kts | 92° |
| 2026-05-06 19:13 | 48.39089 | 11.53982 | 8453 ft | 310 kts | 67° |
| 2026-05-06 19:13 | 48.39987 | 11.56913 | 8106 ft | 305 kts | 64° |
| 2026-05-06 19:13 | 48.40895 | 11.59734 | 7952 ft | 294 kts | 63° |
| 2026-05-06 19:13 | 48.41755 | 11.62402 | 7868 ft | 280 kts | 63° |
| 2026-05-06 19:14 | 48.42547 | 11.64867 | 7891 ft | 271 kts | 63° |
| 2026-05-06 19:14 | 48.43366 | 11.67424 | 7858 ft | 272 kts | 63° |
| 2026-05-06 19:14 | 48.43972 | 11.70121 | 7922 ft | 274 kts | 79° |
| 2026-05-06 19:14 | 48.44253 | 11.72954 | 7971 ft | 273 kts | 84° |
| 2026-05-06 19:15 | 48.44475 | 11.75789 | 7597 ft | 273 kts | 84° |
| 2026-05-06 19:15 | 48.44680 | 11.78622 | 7170 ft | 271 kts | 84° |
| 2026-05-06 19:15 | 48.44873 | 11.81445 | 6754 ft | 270 kts | 84° |
| 2026-05-06 19:15 | 48.45055 | 11.84256 | 6340 ft | 269 kts | 84° |
| 2026-05-06 19:16 | 48.45223 | 11.87047 | 6044 ft | 267 kts | 85° |
| 2026-05-06 19:16 | 48.45388 | 11.89842 | 5990 ft | 268 kts | 84° |
| 2026-05-06 19:16 | 48.45545 | 11.92575 | 5989 ft | 268 kts | 85° |
| 2026-05-06 19:16 | 48.45708 | 11.95386 | 5996 ft | 268 kts | 84° |
| 2026-05-06 19:17 | 48.45863 | 11.98196 | 5987 ft | 268 kts | 85° |
| 2026-05-06 19:17 | 48.46018 | 12.01008 | 5989 ft | 270 kts | 85° |
| 2026-05-06 19:17 | 48.46179 | 12.03817 | 5990 ft | 269 kts | 85° |
| 2026-05-06 19:17 | 48.46341 | 12.06572 | 5740 ft | 270 kts | 85° |
| 2026-05-06 19:18 | 48.46498 | 12.09398 | 5325 ft | 268 kts | 84° |
| 2026-05-06 19:18 | 48.46638 | 12.12191 | 4935 ft | 266 kts | 85° |
| 2026-05-06 19:18 | 48.46772 | 12.14958 | 4565 ft | 264 kts | 85° |
| 2026-05-06 19:18 | 48.46664 | 12.17654 | 4175 ft | 261 kts | 108° |
| 2026-05-06 19:19 | 48.45750 | 12.19939 | 4006 ft | 254 kts | 141° |
| 2026-05-06 19:19 | 48.44279 | 12.21212 | 3989 ft | 242 kts | 171° |
| 2026-05-06 19:19 | 48.42667 | 12.21250 | 3994 ft | 223 kts | 204° |
| 2026-05-06 19:19 | 48.41417 | 12.20128 | 4000 ft | 204 kts | 229° |
| 2026-05-06 19:20 | 48.40449 | 12.18596 | 3994 ft | 202 kts | 234° |
| 2026-05-06 19:20 | 48.39680 | 12.16875 | 3994 ft | 196 kts | 250° |
| 2026-05-06 19:20 | 48.39295 | 12.14946 | 3996 ft | 189 kts | 261° |
| 2026-05-06 19:20 | 48.39086 | 12.13054 | 3994 ft | 178 kts | 264° |
| 2026-05-06 19:21 | 48.38987 | 12.11856 | 3988 ft | 170 kts | 265° |
| 2026-05-06 19:21 | 48.38856 | 12.10135 | 4002 ft | 164 kts | 265° |
| 2026-05-06 19:21 | 48.38677 | 12.07900 | 3992 ft | 161 kts | 265° |
| 2026-05-06 19:21 | 48.38541 | 12.06230 | 3992 ft | 161 kts | 265° |
| 2026-05-06 19:22 | 48.38407 | 12.04564 | 3993 ft | 161 kts | 265° |
| 2026-05-06 19:22 | 48.38276 | 12.02885 | 3997 ft | 161 kts | 265° |
| 2026-05-06 19:22 | 48.38148 | 12.01204 | 3992 ft | 163 kts | 265° |
| 2026-05-06 19:22 | 48.38063 | 12.00060 | 3947 ft | 162 kts | 265° |
| 2026-05-06 19:23 | 48.37947 | 11.98468 | 3701 ft | 164 kts | 265° |
| 2026-05-06 19:23 | 48.37818 | 11.96796 | 3471 ft | 162 kts | 265° |
| 2026-05-06 19:23 | 48.37687 | 11.95116 | 3255 ft | 160 kts | 265° |
| 2026-05-06 19:23 | 48.37559 | 11.93467 | 3033 ft | 157 kts | 266° |
| 2026-05-06 19:24 | 48.37435 | 11.91871 | 2844 ft | 151 kts | 266° |
| 2026-05-06 19:24 | 48.37317 | 11.90313 | 2627 ft | 149 kts | 264° |
| 2026-05-06 19:24 | 48.37201 | 11.88777 | 2409 ft | 146 kts | 263° |
| 2026-05-06 19:24 | 48.37087 | 11.87281 | 2188 ft | 145 kts | 262° |
| 2026-05-06 19:25 | 48.36970 | 11.85766 | 1991 ft | 146 kts | 262° |
| 2026-05-06 19:25 | 48.36853 | 11.84252 | 1778 ft | 144 kts | 262° |
| 2026-05-06 19:25 | 48.36732 | 11.82787 | 1573 ft | 141 kts | 263° |
| 2026-05-06 19:25 | 48.36632 | 11.81378 | 1462 ft | 126 kts | 264° |
| 2026-05-06 19:26 | 48.36548 | 11.80317 | 1466 ft | 66 kts | 264° |
| 2026-05-06 19:26 | 48.36490 | 11.79824 | 1466 ft | 41 kts | 249° |
| 2026-05-06 19:26 | 48.36396 | 11.79599 | 1467 ft | 3 kts | 234° |
| 2026-05-06 19:26 | 48.36387 | 11.79580 | 1464 ft | 1 kts | 234° |
| 2026-05-06 19:27 | 48.36384 | 11.79573 | 1463 ft | 0 kts | 234° |
| 2026-05-06 19:27 | 48.36376 | 11.79557 | 1470 ft | 6 kts | 234° |
| 2026-05-06 19:28 | 48.36336 | 11.79474 | 1462 ft | 11 kts | 234° |
| 2026-05-06 19:28 | 48.36292 | 11.79382 | 1471 ft | 11 kts | 234° |
| 2026-05-06 19:28 | 48.36246 | 11.79287 | 1462 ft | 11 kts | 234° |
| 2026-05-06 19:28 | 48.36200 | 11.79186 | 1465 ft | 13 kts | 243° |
| 2026-05-06 19:29 | 48.36183 | 11.79055 | 1472 ft | 13 kts | 263° |
| 2026-05-06 19:29 | 48.36173 | 11.78919 | 1469 ft | 13 kts | 264° |
| 2026-05-06 19:29 | 48.36163 | 11.78780 | 1463 ft | 14 kts | 264° |
| 2026-05-06 19:29 | 48.36152 | 11.78637 | 1473 ft | 14 kts | 263° |
| 2026-05-06 19:30 | 48.36140 | 11.78491 | 1469 ft | 14 kts | 263° |
| 2026-05-06 19:30 | 48.36128 | 11.78342 | 1474 ft | 14 kts | 263° |
| 2026-05-06 19:30 | 48.36116 | 11.78190 | 1474 ft | 15 kts | 263° |
| 2026-05-06 19:30 | 48.36103 | 11.78035 | 1471 ft | 15 kts | 263° |
| 2026-05-06 19:31 | 48.36090 | 11.77881 | 1465 ft | 15 kts | 263° |
| 2026-05-06 19:31 | 48.36085 | 11.77809 | 1476 ft | 0 kts | 264° |
| 2026-05-06 19:31 | 48.36084 | 11.77807 | 1476 ft | 0 kts | 264° |
| 2026-05-06 19:32 | 48.36076 | 11.77709 | 1468 ft | 17 kts | 250° |
| 2026-05-06 19:32 | 48.36032 | 11.77667 | 1474 ft | 0 kts | 176° |
| 2026-05-06 19:33 | 48.36018 | 11.77669 | 1476 ft | 5 kts | 176° |
| 2026-05-06 19:33 | 48.35959 | 11.77675 | 1477 ft | 12 kts | 175° |
| 2026-05-06 19:33 | 48.35860 | 11.77691 | 1468 ft | 17 kts | 172° |
| 2026-05-06 19:33 | 48.35727 | 11.77716 | 1475 ft | 22 kts | 173° |
| 2026-05-06 19:34 | 48.35565 | 11.77743 | 1479 ft | 25 kts | 173° |
| 2026-05-06 19:34 | 48.35380 | 11.77776 | 1470 ft | 27 kts | 173° |
| 2026-05-06 19:34 | 48.35206 | 11.77805 | 1480 ft | 9 kts | 174° |
| 2026-05-06 19:34 | 48.35204 | 11.77805 | 1481 ft | 0 kts | 174° |
| 2026-05-06 19:35 | 48.35210 | 11.77804 | 1479 ft | 2 kts | 174° |
| 2026-05-06 19:35 | 48.35207 | 11.77805 | 1480 ft | 7 kts | 174° |
| 2026-05-06 19:35 | 48.35178 | 11.77766 | 1479 ft | 4 kts | 257° |
| 2026-05-06 19:35 | 48.35181 | 11.77732 | 1484 ft | 3 kts | 277° |
| 2026-05-06 19:36 | 48.35180 | 11.77711 | 1484 ft | 0 kts | 266° |